sensor_id;sensor_type;location;lat;lon;timestamp;temperature;humidity
31759;DHT22;36334;51.366;0.020;2022-10-26T00:00:08;15.00;99.90
31759;DHT22;36334;51.366;0.020;2022-10-26T00:02:57;15.00;99.90
31759;DHT22;36334;51.366;0.020;2022-10-26T00:05:43;15.00;99.90
31759;DHT22;36334;51.366;0.020;2022-10-26T00:08:29;15.10;99.90
31759;DHT22;36334;51.366;0.020;2022-10-26T00:11:15;15.10;99.90
31759;DHT22;36334;51.366;0.020;2022-10-26T00:14:01;15.10;99.90
31759;DHT22;36334;51.366;0.020;2022-10-26T00:16:48;14.90;99.90
31759;DHT22;36334;51.366;0.020;2022-10-26T00:19:34;15.10;99.90
31759;DHT22;36334;51.366;0.020;2022-10-26T00:22:22;15.10;99.90
31759;DHT22;36334;51.366;0.020;2022-10-26T00:25:09;15.20;99.90
31759;DHT22;36334;51.366;0.020;2022-10-26T00:27:55;15.20;99.90
31759;DHT22;36334;51.366;0.020;2022-10-26T00:30:41;15.20;99.90
31759;DHT22;36334;51.366;0.020;2022-10-26T00:33:27;15.20;99.90
31759;DHT22;36334;51.366;0.020;2022-10-26T00:36:15;15.20;99.90
31759;DHT22;36334;51.366;0.020;2022-10-26T00:39:03;15.20;99.90
31759;DHT22;36334;51.366;0.020;2022-10-26T00:41:49;15.20;99.90
31759;DHT22;36334;51.366;0.020;2022-10-26T00:47:37;15.20;99.90
31759;DHT22;36334;51.366;0.020;2022-10-26T00:50:36;15.20;99.90
31759;DHT22;36334;51.366;0.020;2022-10-26T00:53:23;15.20;99.90
31759;DHT22;36334;51.366;0.020;2022-10-26T00:56:10;15.20;99.90
31759;DHT22;36334;51.366;0.020;2022-10-26T00:59:03;15.20;99.90
31759;DHT22;36334;51.366;0.020;2022-10-26T01:01:50;15.20;99.90
31759;DHT22;36334;51.366;0.020;2022-10-26T01:04:37;15.20;99.90
31759;DHT22;36334;51.366;0.020;2022-10-26T01:07:24;15.20;99.90
31759;DHT22;36334;51.366;0.020;2022-10-26T01:10:11;15.20;99.90
31759;DHT22;36334;51.366;0.020;2022-10-26T01:13:01;15.20;99.90
31759;DHT22;36334;51.366;0.020;2022-10-26T01:27:37;15.20;99.90
31759;DHT22;36334;51.366;0.020;2022-10-26T01:30:29;15.20;99.90
31759;DHT22;36334;51.366;0.020;2022-10-26T01:33:28;15.20;99.90
31759;DHT22;36334;51.366;0.020;2022-10-26T01:36:29;15.20;99.90
31759;DHT22;36334;51.366;0.020;2022-10-26T01:39:28;15.20;99.90
31759;DHT22;36334;51.366;0.020;2022-10-26T01:42:21;15.20;99.90
31759;DHT22;36334;51.366;0.020;2022-10-26T01:45:09;15.20;99.90
31759;DHT22;36334;51.366;0.020;2022-10-26T01:47:58;15.20;99.90
31759;DHT22;36334;51.366;0.020;2022-10-26T01:50:47;15.20;99.90
31759;DHT22;36334;51.366;0.020;2022-10-26T01:53:34;15.20;99.90
31759;DHT22;36334;51.366;0.020;2022-10-26T01:56:24;15.20;99.90
31759;DHT22;36334;51.366;0.020;2022-10-26T02:05:31;15.10;99.90
31759;DHT22;36334;51.366;0.020;2022-10-26T02:08:39;15.10;99.90
31759;DHT22;36334;51.366;0.020;2022-10-26T02:11:40;15.10;99.90
31759;DHT22;36334;51.366;0.020;2022-10-26T02:14:41;15.10;99.90
31759;DHT22;36334;51.366;0.020;2022-10-26T02:20:31;15.10;99.90
31759;DHT22;36334;51.366;0.020;2022-10-26T02:23:19;15.10;99.90
31759;DHT22;36334;51.366;0.020;2022-10-26T02:26:09;15.10;99.90
31759;DHT22;36334;51.366;0.020;2022-10-26T02:29:01;15.10;99.90
31759;DHT22;36334;51.366;0.020;2022-10-26T02:31:50;15.10;99.90
31759;DHT22;36334;51.366;0.020;2022-10-26T02:34:37;15.10;99.90
31759;DHT22;36334;51.366;0.020;2022-10-26T02:37:25;15.20;99.90
31759;DHT22;36334;51.366;0.020;2022-10-26T02:40:15;15.20;99.90
31759;DHT22;36334;51.366;0.020;2022-10-26T02:43:05;15.20;99.90
31759;DHT22;36334;51.366;0.020;2022-10-26T02:46:00;15.20;99.90
31759;DHT22;36334;51.366;0.020;2022-10-26T02:48:48;15.20;99.90
31759;DHT22;36334;51.366;0.020;2022-10-26T02:54:52;15.10;99.90
31759;DHT22;36334;51.366;0.020;2022-10-26T02:57:45;15.10;99.90
31759;DHT22;36334;51.366;0.020;2022-10-26T03:00:32;15.10;99.90
31759;DHT22;36334;51.366;0.020;2022-10-26T03:03:21;15.00;99.90
31759;DHT22;36334;51.366;0.020;2022-10-26T03:06:07;15.00;99.90
31759;DHT22;36334;51.366;0.020;2022-10-26T03:08:53;15.00;99.90
31759;DHT22;36334;51.366;0.020;2022-10-26T03:11:40;15.00;99.90
31759;DHT22;36334;51.366;0.020;2022-10-26T03:14:26;14.90;99.90
31759;DHT22;36334;51.366;0.020;2022-10-26T03:17:12;14.90;99.90
31759;DHT22;36334;51.366;0.020;2022-10-26T03:19:58;14.90;99.90
31759;DHT22;36334;51.366;0.020;2022-10-26T03:22:46;14.90;99.90
31759;DHT22;36334;51.366;0.020;2022-10-26T03:25:33;14.90;99.90
31759;DHT22;36334;51.366;0.020;2022-10-26T03:28:19;14.90;99.90
31759;DHT22;36334;51.366;0.020;2022-10-26T03:31:05;14.90;99.90
31759;DHT22;36334;51.366;0.020;2022-10-26T03:33:51;14.90;99.90
31759;DHT22;36334;51.366;0.020;2022-10-26T03:36:37;14.90;99.90
31759;DHT22;36334;51.366;0.020;2022-10-26T03:39:23;14.90;99.90
31759;DHT22;36334;51.366;0.020;2022-10-26T03:42:09;14.90;99.90
31759;DHT22;36334;51.366;0.020;2022-10-26T03:44:55;14.90;99.90
31759;DHT22;36334;51.366;0.020;2022-10-26T03:47:46;14.90;99.90
31759;DHT22;36334;51.366;0.020;2022-10-26T03:50:32;14.90;99.90
31759;DHT22;36334;51.366;0.020;2022-10-26T03:53:18;14.90;99.90
31759;DHT22;36334;51.366;0.020;2022-10-26T03:56:04;14.90;99.90
31759;DHT22;36334;51.366;0.020;2022-10-26T03:58:50;14.90;99.90
31759;DHT22;36334;51.366;0.020;2022-10-26T04:01:36;14.90;99.90
31759;DHT22;36334;51.366;0.020;2022-10-26T04:04:24;14.90;99.90
31759;DHT22;36334;51.366;0.020;2022-10-26T04:07:10;15.00;99.90
31759;DHT22;36334;51.366;0.020;2022-10-26T04:09:56;15.00;99.90
31759;DHT22;36334;51.366;0.020;2022-10-26T04:12:42;15.10;99.90
31759;DHT22;36334;51.366;0.020;2022-10-26T04:15:28;15.20;99.90
31759;DHT22;36334;51.366;0.020;2022-10-26T04:18:14;15.30;99.90
31759;DHT22;36334;51.366;0.020;2022-10-26T04:21:00;15.40;99.90
31759;DHT22;36334;51.366;0.020;2022-10-26T04:23:47;15.50;99.90
31759;DHT22;36334;51.366;0.020;2022-10-26T04:26:32;15.50;99.90
31759;DHT22;36334;51.366;0.020;2022-10-26T04:29:18;15.60;99.90
31759;DHT22;36334;51.366;0.020;2022-10-26T04:32:04;15.70;99.90
31759;DHT22;36334;51.366;0.020;2022-10-26T04:34:51;15.80;99.90
31759;DHT22;36334;51.366;0.020;2022-10-26T04:37:39;15.80;99.90
31759;DHT22;36334;51.366;0.020;2022-10-26T04:40:26;15.80;99.90
31759;DHT22;36334;51.366;0.020;2022-10-26T04:43:12;15.90;99.90
31759;DHT22;36334;51.366;0.020;2022-10-26T04:45:59;15.90;99.90
31759;DHT22;36334;51.366;0.020;2022-10-26T04:48:47;16.00;99.90
31759;DHT22;36334;51.366;0.020;2022-10-26T04:51:33;16.00;99.90
31759;DHT22;36334;51.366;0.020;2022-10-26T04:54:19;16.10;99.90
31759;DHT22;36334;51.366;0.020;2022-10-26T04:57:05;16.10;99.90
31759;DHT22;36334;51.366;0.020;2022-10-26T04:59:51;16.10;99.90
31759;DHT22;36334;51.366;0.020;2022-10-26T05:02:37;16.20;99.90
31759;DHT22;36334;51.366;0.020;2022-10-26T05:05:23;16.20;99.90
31759;DHT22;36334;51.366;0.020;2022-10-26T05:08:09;16.20;99.90
31759;DHT22;36334;51.366;0.020;2022-10-26T05:10:55;16.20;99.90
31759;DHT22;36334;51.366;0.020;2022-10-26T05:13:42;16.20;99.90
31759;DHT22;36334;51.366;0.020;2022-10-26T05:16:28;16.20;99.90
31759;DHT22;36334;51.366;0.020;2022-10-26T05:19:14;16.20;99.90
31759;DHT22;36334;51.366;0.020;2022-10-26T05:22:01;16.10;99.90
31759;DHT22;36334;51.366;0.020;2022-10-26T05:24:47;16.10;99.90
31759;DHT22;36334;51.366;0.020;2022-10-26T05:27:33;16.00;99.90
31759;DHT22;36334;51.366;0.020;2022-10-26T05:30:20;15.90;99.90
31759;DHT22;36334;51.366;0.020;2022-10-26T05:33:09;15.90;99.90
31759;DHT22;36334;51.366;0.020;2022-10-26T05:35:55;15.80;99.90
31759;DHT22;36334;51.366;0.020;2022-10-26T05:38:41;15.80;99.90
31759;DHT22;36334;51.366;0.020;2022-10-26T05:41:27;15.80;99.90
31759;DHT22;36334;51.366;0.020;2022-10-26T05:44:13;15.80;99.90
31759;DHT22;36334;51.366;0.020;2022-10-26T05:46:59;15.80;99.90
31759;DHT22;36334;51.366;0.020;2022-10-26T05:49:45;15.70;99.90
31759;DHT22;36334;51.366;0.020;2022-10-26T05:52:43;15.70;99.90
31759;DHT22;36334;51.366;0.020;2022-10-26T05:55:30;15.70;99.90
31759;DHT22;36334;51.366;0.020;2022-10-26T05:58:16;15.70;99.90
31759;DHT22;36334;51.366;0.020;2022-10-26T06:01:21;15.70;99.90
31759;DHT22;36334;51.366;0.020;2022-10-26T06:07:23;15.70;99.90
31759;DHT22;36334;51.366;0.020;2022-10-26T06:10:10;15.70;99.90
31759;DHT22;36334;51.366;0.020;2022-10-26T06:12:59;15.70;99.90
31759;DHT22;36334;51.366;0.020;2022-10-26T06:16:02;15.80;99.90
31759;DHT22;36334;51.366;0.020;2022-10-26T06:18:57;15.80;99.90
31759;DHT22;36334;51.366;0.020;2022-10-26T06:31:11;15.70;99.90
31759;DHT22;36334;51.366;0.020;2022-10-26T06:33:59;15.70;99.90
31759;DHT22;36334;51.366;0.020;2022-10-26T06:36:46;15.70;99.90
31759;DHT22;36334;51.366;0.020;2022-10-26T06:39:36;15.60;99.90
31759;DHT22;36334;51.366;0.020;2022-10-26T06:42:24;15.60;99.90
31759;DHT22;36334;51.366;0.020;2022-10-26T06:45:17;15.60;99.90
31759;DHT22;36334;51.366;0.020;2022-10-26T06:48:09;15.60;99.90
31759;DHT22;36334;51.366;0.020;2022-10-26T06:50:57;15.60;99.90
31759;DHT22;36334;51.366;0.020;2022-10-26T06:56:39;15.60;99.90
31759;DHT22;36334;51.366;0.020;2022-10-26T06:59:34;15.60;99.90
31759;DHT22;36334;51.366;0.020;2022-10-26T07:02:25;15.70;99.90
31759;DHT22;36334;51.366;0.020;2022-10-26T07:05:11;15.80;99.90
31759;DHT22;36334;51.366;0.020;2022-10-26T07:07:58;15.80;99.90
31759;DHT22;36334;51.366;0.020;2022-10-26T07:10:45;15.80;99.90
31759;DHT22;36334;51.366;0.020;2022-10-26T07:13:32;15.80;99.90
31759;DHT22;36334;51.366;0.020;2022-10-26T07:16:18;15.80;99.90
31759;DHT22;36334;51.366;0.020;2022-10-26T07:19:06;15.80;99.90
31759;DHT22;36334;51.366;0.020;2022-10-26T07:21:56;15.80;99.90
31759;DHT22;36334;51.366;0.020;2022-10-26T07:24:43;15.80;99.90
31759;DHT22;36334;51.366;0.020;2022-10-26T07:27:30;15.80;99.90
31759;DHT22;36334;51.366;0.020;2022-10-26T07:30:16;15.80;99.90
31759;DHT22;36334;51.366;0.020;2022-10-26T07:33:08;15.80;99.90
31759;DHT22;36334;51.366;0.020;2022-10-26T07:35:55;15.80;99.90
31759;DHT22;36334;51.366;0.020;2022-10-26T07:38:41;15.80;99.90
31759;DHT22;36334;51.366;0.020;2022-10-26T07:41:27;15.80;99.90
31759;DHT22;36334;51.366;0.020;2022-10-26T07:44:12;15.80;99.90
31759;DHT22;36334;51.366;0.020;2022-10-26T07:46:58;15.80;99.90
31759;DHT22;36334;51.366;0.020;2022-10-26T07:49:45;15.90;99.90
31759;DHT22;36334;51.366;0.020;2022-10-26T07:52:31;16.00;99.90
31759;DHT22;36334;51.366;0.020;2022-10-26T07:55:17;16.00;99.90
31759;DHT22;36334;51.366;0.020;2022-10-26T07:58:05;16.10;99.90
31759;DHT22;36334;51.366;0.020;2022-10-26T08:00:51;16.10;99.90
31759;DHT22;36334;51.366;0.020;2022-10-26T08:03:38;16.10;99.90
31759;DHT22;36334;51.366;0.020;2022-10-26T08:06:25;16.20;99.90
31759;DHT22;36334;51.366;0.020;2022-10-26T08:09:10;16.20;99.90
31759;DHT22;36334;51.366;0.020;2022-10-26T08:11:57;16.20;99.90
31759;DHT22;36334;51.366;0.020;2022-10-26T08:14:44;16.30;99.90
31759;DHT22;36334;51.366;0.020;2022-10-26T08:17:30;16.30;99.90
31759;DHT22;36334;51.366;0.020;2022-10-26T08:20:16;16.30;99.90
31759;DHT22;36334;51.366;0.020;2022-10-26T08:23:02;16.40;99.90
31759;DHT22;36334;51.366;0.020;2022-10-26T08:25:51;16.40;99.90
31759;DHT22;36334;51.366;0.020;2022-10-26T08:28:37;16.50;99.90
31759;DHT22;36334;51.366;0.020;2022-10-26T08:31:24;16.50;99.90
31759;DHT22;36334;51.366;0.020;2022-10-26T08:34:10;16.60;99.90
31759;DHT22;36334;51.366;0.020;2022-10-26T08:36:56;16.60;99.90
31759;DHT22;36334;51.366;0.020;2022-10-26T08:39:42;16.70;99.90
31759;DHT22;36334;51.366;0.020;2022-10-26T08:42:49;16.70;99.90
31759;DHT22;36334;51.366;0.020;2022-10-26T08:45:40;16.70;99.90
31759;DHT22;36334;51.366;0.020;2022-10-26T08:48:36;16.80;99.90
31759;DHT22;36334;51.366;0.020;2022-10-26T08:51:27;16.80;99.90
31759;DHT22;36334;51.366;0.020;2022-10-26T08:54:21;16.80;99.90
31759;DHT22;36334;51.366;0.020;2022-10-26T09:00:10;16.70;99.90
31759;DHT22;36334;51.366;0.020;2022-10-26T09:02:56;16.70;99.90
31759;DHT22;36334;51.366;0.020;2022-10-26T09:06:04;16.70;99.90
31759;DHT22;36334;51.366;0.020;2022-10-26T09:12:46;16.80;99.90
31759;DHT22;36334;51.366;0.020;2022-10-26T09:24:30;17.10;99.90
31759;DHT22;36334;51.366;0.020;2022-10-26T09:27:26;17.10;99.90
31759;DHT22;36334;51.366;0.020;2022-10-26T09:30:18;17.20;99.90
31759;DHT22;36334;51.366;0.020;2022-10-26T09:33:14;17.20;99.90
31759;DHT22;36334;51.366;0.020;2022-10-26T09:36:07;17.30;99.90
31759;DHT22;36334;51.366;0.020;2022-10-26T09:39:07;17.30;99.90
31759;DHT22;36334;51.366;0.020;2022-10-26T09:42:09;17.40;99.90
31759;DHT22;36334;51.366;0.020;2022-10-26T09:45:02;17.40;99.90
31759;DHT22;36334;51.366;0.020;2022-10-26T09:47:52;17.40;99.90
31759;DHT22;36334;51.366;0.020;2022-10-26T09:50:43;17.50;99.90
31759;DHT22;36334;51.366;0.020;2022-10-26T09:53:31;17.50;99.90
31759;DHT22;36334;51.366;0.020;2022-10-26T09:56:17;17.50;99.90
31759;DHT22;36334;51.366;0.020;2022-10-26T09:59:04;17.50;99.90
31759;DHT22;36334;51.366;0.020;2022-10-26T10:01:51;17.50;99.90
31759;DHT22;36334;51.366;0.020;2022-10-26T10:04:45;17.50;99.90
31759;DHT22;36334;51.366;0.020;2022-10-26T10:07:31;17.60;99.90
31759;DHT22;36334;51.366;0.020;2022-10-26T10:10:22;17.60;99.90
31759;DHT22;36334;51.366;0.020;2022-10-26T10:13:15;17.60;99.90
31759;DHT22;36334;51.366;0.020;2022-10-26T10:16:06;17.60;99.90
31759;DHT22;36334;51.366;0.020;2022-10-26T10:18:55;17.60;99.90
31759;DHT22;36334;51.366;0.020;2022-10-26T10:21:47;17.70;99.90
31759;DHT22;36334;51.366;0.020;2022-10-26T10:24:36;17.70;99.90
31759;DHT22;36334;51.366;0.020;2022-10-26T10:27:26;17.70;99.90
31759;DHT22;36334;51.366;0.020;2022-10-26T10:30:21;17.70;99.90
31759;DHT22;36334;51.366;0.020;2022-10-26T10:33:11;17.70;99.90
31759;DHT22;36334;51.366;0.020;2022-10-26T10:35:58;17.70;99.90
31759;DHT22;36334;51.366;0.020;2022-10-26T10:38:46;17.70;99.90
31759;DHT22;36334;51.366;0.020;2022-10-26T10:41:34;17.70;99.90
31759;DHT22;36334;51.366;0.020;2022-10-26T10:44:26;17.70;99.90
31759;DHT22;36334;51.366;0.020;2022-10-26T10:47:34;17.80;99.90
31759;DHT22;36334;51.366;0.020;2022-10-26T10:50:21;17.80;99.90
31759;DHT22;36334;51.366;0.020;2022-10-26T10:53:13;17.90;99.90
31759;DHT22;36334;51.366;0.020;2022-10-26T11:08:58;18.30;99.90
31759;DHT22;36334;51.366;0.020;2022-10-26T11:12:05;18.40;99.90
31759;DHT22;36334;51.366;0.020;2022-10-26T11:15:07;18.40;99.90
31759;DHT22;36334;51.366;0.020;2022-10-26T11:18:11;18.50;99.90
31759;DHT22;36334;51.366;0.020;2022-10-26T11:21:03;18.60;99.90
31759;DHT22;36334;51.366;0.020;2022-10-26T11:30:05;18.80;99.90
31759;DHT22;36334;51.366;0.020;2022-10-26T11:33:03;18.80;99.90
31759;DHT22;36334;51.366;0.020;2022-10-26T11:36:04;18.80;99.90
31759;DHT22;36334;51.366;0.020;2022-10-26T11:39:04;18.80;99.90
31759;DHT22;36334;51.366;0.020;2022-10-26T11:42:05;18.70;99.90
31759;DHT22;36334;51.366;0.020;2022-10-26T11:45:15;18.80;99.90
31759;DHT22;36334;51.366;0.020;2022-10-26T11:50:56;18.80;99.90
31759;DHT22;36334;51.366;0.020;2022-10-26T11:53:44;18.80;99.90
31759;DHT22;36334;51.366;0.020;2022-10-26T11:56:39;18.70;99.90
31759;DHT22;36334;51.366;0.020;2022-10-26T11:59:35;18.70;99.90
31759;DHT22;36334;51.366;0.020;2022-10-26T12:02:24;18.70;99.90
31759;DHT22;36334;51.366;0.020;2022-10-26T12:05:24;18.70;99.90
31759;DHT22;36334;51.366;0.020;2022-10-26T12:08:28;18.80;99.90
31759;DHT22;36334;51.366;0.020;2022-10-26T12:14:25;18.80;99.90
31759;DHT22;36334;51.366;0.020;2022-10-26T12:17:40;18.80;99.90
31759;DHT22;36334;51.366;0.020;2022-10-26T12:20:56;18.80;99.90
31759;DHT22;36334;51.366;0.020;2022-10-26T12:27:03;18.90;99.90
31759;DHT22;36334;51.366;0.020;2022-10-26T12:33:01;18.90;99.90
31759;DHT22;36334;51.366;0.020;2022-10-26T12:35:50;18.90;99.90
31759;DHT22;36334;51.366;0.020;2022-10-26T12:41:25;19.10;99.90
31759;DHT22;36334;51.366;0.020;2022-10-26T12:53:05;19.10;99.90
31759;DHT22;36334;51.366;0.020;2022-10-26T12:56:12;19.00;99.90
31759;DHT22;36334;51.366;0.020;2022-10-26T12:59:03;18.90;99.90
31759;DHT22;36334;51.366;0.020;2022-10-26T13:08:23;18.70;99.90
31759;DHT22;36334;51.366;0.020;2022-10-26T13:11:18;18.70;99.90
31759;DHT22;36334;51.366;0.020;2022-10-26T13:14:22;18.60;99.90
31759;DHT22;36334;51.366;0.020;2022-10-26T13:17:25;18.60;99.90
31759;DHT22;36334;51.366;0.020;2022-10-26T13:20:16;18.60;99.90
31759;DHT22;36334;51.366;0.020;2022-10-26T13:23:15;18.70;99.90
31759;DHT22;36334;51.366;0.020;2022-10-26T13:28:55;18.90;99.90
31759;DHT22;36334;51.366;0.020;2022-10-26T13:34:29;19.10;99.90
31759;DHT22;36334;51.366;0.020;2022-10-26T13:37:25;19.20;99.90
31759;DHT22;36334;51.366;0.020;2022-10-26T13:40:32;19.20;99.90
31759;DHT22;36334;51.366;0.020;2022-10-26T13:43:22;19.30;99.90
31759;DHT22;36334;51.366;0.020;2022-10-26T13:46:21;19.30;99.90
31759;DHT22;36334;51.366;0.020;2022-10-26T13:49:29;19.30;99.90
31759;DHT22;36334;51.366;0.020;2022-10-26T13:52:25;19.10;99.90
31759;DHT22;36334;51.366;0.020;2022-10-26T13:58:16;19.00;99.90
31759;DHT22;36334;51.366;0.020;2022-10-26T14:01:18;18.90;99.90
31759;DHT22;36334;51.366;0.020;2022-10-26T14:04:26;18.90;99.90
31759;DHT22;36334;51.366;0.020;2022-10-26T14:07:19;19.00;99.90
31759;DHT22;36334;51.366;0.020;2022-10-26T14:10:32;19.00;99.90
31759;DHT22;36334;51.366;0.020;2022-10-26T14:13:25;19.00;99.90
31759;DHT22;36334;51.366;0.020;2022-10-26T14:16:15;19.10;99.90
31759;DHT22;36334;51.366;0.020;2022-10-26T14:19:03;19.20;99.90
31759;DHT22;36334;51.366;0.020;2022-10-26T14:21:49;19.30;99.90
31759;DHT22;36334;51.366;0.020;2022-10-26T14:24:36;19.30;99.90
31759;DHT22;36334;51.366;0.020;2022-10-26T14:27:37;19.50;99.90
31759;DHT22;36334;51.366;0.020;2022-10-26T14:30:29;19.60;99.90
31759;DHT22;36334;51.366;0.020;2022-10-26T14:33:23;19.60;99.90
31759;DHT22;36334;51.366;0.020;2022-10-26T14:36:10;19.70;99.90
31759;DHT22;36334;51.366;0.020;2022-10-26T14:39:02;19.70;99.90
31759;DHT22;36334;51.366;0.020;2022-10-26T14:41:51;19.60;99.90
31759;DHT22;36334;51.366;0.020;2022-10-26T14:44:39;19.70;99.90
31759;DHT22;36334;51.366;0.020;2022-10-26T14:47:30;19.70;99.90
31759;DHT22;36334;51.366;0.020;2022-10-26T14:50:19;19.70;99.90
31759;DHT22;36334;51.366;0.020;2022-10-26T14:53:15;19.70;99.90
31759;DHT22;36334;51.366;0.020;2022-10-26T14:56:03;19.80;99.90
31759;DHT22;36334;51.366;0.020;2022-10-26T14:58:50;19.70;99.90
31759;DHT22;36334;51.366;0.020;2022-10-26T15:01:55;19.70;99.90
31759;DHT22;36334;51.366;0.020;2022-10-26T15:05:15;19.70;99.90
31759;DHT22;36334;51.366;0.020;2022-10-26T15:08:01;19.70;99.90
31759;DHT22;36334;51.366;0.020;2022-10-26T15:10:48;19.60;99.90
31759;DHT22;36334;51.366;0.020;2022-10-26T15:13:39;19.60;99.90
31759;DHT22;36334;51.366;0.020;2022-10-26T15:16:29;19.60;99.90
31759;DHT22;36334;51.366;0.020;2022-10-26T15:19:19;19.50;99.90
31759;DHT22;36334;51.366;0.020;2022-10-26T15:22:21;19.40;99.90
31759;DHT22;36334;51.366;0.020;2022-10-26T15:25:16;19.30;99.90
31759;DHT22;36334;51.366;0.020;2022-10-26T15:28:10;19.10;99.90
31759;DHT22;36334;51.366;0.020;2022-10-26T15:31:03;18.90;99.90
31759;DHT22;36334;51.366;0.020;2022-10-26T15:36:35;18.60;99.90
31759;DHT22;36334;51.366;0.020;2022-10-26T15:39:22;18.40;99.90
31759;DHT22;36334;51.366;0.020;2022-10-26T15:42:12;18.30;99.90
31759;DHT22;36334;51.366;0.020;2022-10-26T15:44:59;18.20;99.90
31759;DHT22;36334;51.366;0.020;2022-10-26T15:47:45;18.10;99.90
31759;DHT22;36334;51.366;0.020;2022-10-26T15:50:32;18.10;99.90
31759;DHT22;36334;51.366;0.020;2022-10-26T15:53:24;17.90;99.90
31759;DHT22;36334;51.366;0.020;2022-10-26T15:56:18;17.90;99.90
31759;DHT22;36334;51.366;0.020;2022-10-26T15:59:15;17.80;99.90
31759;DHT22;36334;51.366;0.020;2022-10-26T16:02:01;17.70;99.90
31759;DHT22;36334;51.366;0.020;2022-10-26T16:04:47;17.60;99.90
31759;DHT22;36334;51.366;0.020;2022-10-26T16:07:33;17.60;99.90
31759;DHT22;36334;51.366;0.020;2022-10-26T16:10:22;17.50;99.90
31759;DHT22;36334;51.366;0.020;2022-10-26T16:13:12;17.40;99.90
31759;DHT22;36334;51.366;0.020;2022-10-26T16:16:00;17.40;99.90
31759;DHT22;36334;51.366;0.020;2022-10-26T16:18:47;17.30;99.90
31759;DHT22;36334;51.366;0.020;2022-10-26T16:21:51;17.30;99.90
31759;DHT22;36334;51.366;0.020;2022-10-26T16:24:37;17.20;99.90
31759;DHT22;36334;51.366;0.020;2022-10-26T16:27:23;17.10;99.90
31759;DHT22;36334;51.366;0.020;2022-10-26T16:30:11;17.10;99.90
31759;DHT22;36334;51.366;0.020;2022-10-26T16:32:58;17.00;99.90
31759;DHT22;36334;51.366;0.020;2022-10-26T16:35:43;16.90;99.90
31759;DHT22;36334;51.366;0.020;2022-10-26T16:38:30;16.80;99.90
31759;DHT22;36334;51.366;0.020;2022-10-26T16:41:17;16.80;99.90
31759;DHT22;36334;51.366;0.020;2022-10-26T16:44:03;16.70;99.90
31759;DHT22;36334;51.366;0.020;2022-10-26T16:46:50;16.60;99.90
31759;DHT22;36334;51.366;0.020;2022-10-26T16:49:36;16.60;99.90
31759;DHT22;36334;51.366;0.020;2022-10-26T16:52:23;16.50;99.90
31759;DHT22;36334;51.366;0.020;2022-10-26T16:55:09;16.50;99.90
31759;DHT22;36334;51.366;0.020;2022-10-26T16:57:58;16.40;99.90
31759;DHT22;36334;51.366;0.020;2022-10-26T17:00:44;16.40;99.90
31759;DHT22;36334;51.366;0.020;2022-10-26T17:03:30;16.40;99.90
31759;DHT22;36334;51.366;0.020;2022-10-26T17:06:17;16.30;99.90
31759;DHT22;36334;51.366;0.020;2022-10-26T17:09:03;16.30;99.90
31759;DHT22;36334;51.366;0.020;2022-10-26T17:11:49;16.20;99.90
31759;DHT22;36334;51.366;0.020;2022-10-26T17:14:35;16.20;99.90
31759;DHT22;36334;51.366;0.020;2022-10-26T17:17:21;16.10;99.90
31759;DHT22;36334;51.366;0.020;2022-10-26T17:20:08;16.10;99.90
31759;DHT22;36334;51.366;0.020;2022-10-26T17:22:54;16.10;99.90
31759;DHT22;36334;51.366;0.020;2022-10-26T17:25:40;16.10;99.90
31759;DHT22;36334;51.366;0.020;2022-10-26T17:28:27;16.00;99.90
31759;DHT22;36334;51.366;0.020;2022-10-26T17:31:14;16.10;99.90
31759;DHT22;36334;51.366;0.020;2022-10-26T17:34:00;16.00;99.90
31759;DHT22;36334;51.366;0.020;2022-10-26T17:36:48;16.00;99.90
31759;DHT22;36334;51.366;0.020;2022-10-26T17:39:34;15.90;99.90
31759;DHT22;36334;51.366;0.020;2022-10-26T17:42:20;15.90;99.90
31759;DHT22;36334;51.366;0.020;2022-10-26T17:45:07;15.80;99.90
31759;DHT22;36334;51.366;0.020;2022-10-26T17:47:54;15.80;99.90
31759;DHT22;36334;51.366;0.020;2022-10-26T17:50:40;15.80;99.90
31759;DHT22;36334;51.366;0.020;2022-10-26T17:53:27;15.80;99.90
31759;DHT22;36334;51.366;0.020;2022-10-26T17:56:20;15.70;99.90
31759;DHT22;36334;51.366;0.020;2022-10-26T17:59:08;15.70;99.90
31759;DHT22;36334;51.366;0.020;2022-10-26T18:01:55;15.60;99.90
31759;DHT22;36334;51.366;0.020;2022-10-26T18:04:42;15.60;99.90
31759;DHT22;36334;51.366;0.020;2022-10-26T18:07:29;15.50;99.90
31759;DHT22;36334;51.366;0.020;2022-10-26T18:10:14;15.50;99.90
31759;DHT22;36334;51.366;0.020;2022-10-26T18:13:21;15.50;99.90
31759;DHT22;36334;51.366;0.020;2022-10-26T18:16:13;15.50;99.90
31759;DHT22;36334;51.366;0.020;2022-10-26T18:19:02;15.40;99.90
31759;DHT22;36334;51.366;0.020;2022-10-26T18:21:49;15.40;99.90
31759;DHT22;36334;51.366;0.020;2022-10-26T18:24:37;15.40;99.90
31759;DHT22;36334;51.366;0.020;2022-10-26T18:27:23;15.40;99.90
31759;DHT22;36334;51.366;0.020;2022-10-26T18:30:10;15.30;99.90
31759;DHT22;36334;51.366;0.020;2022-10-26T18:32:56;15.30;99.90
31759;DHT22;36334;51.366;0.020;2022-10-26T18:35:42;15.30;99.90
31759;DHT22;36334;51.366;0.020;2022-10-26T18:38:31;15.20;99.90
31759;DHT22;36334;51.366;0.020;2022-10-26T18:41:19;15.20;99.90
31759;DHT22;36334;51.366;0.020;2022-10-26T18:44:07;15.20;99.90
31759;DHT22;36334;51.366;0.020;2022-10-26T18:46:53;15.10;99.90
31759;DHT22;36334;51.366;0.020;2022-10-26T18:49:40;15.10;99.90
31759;DHT22;36334;51.366;0.020;2022-10-26T18:52:26;15.10;99.90
31759;DHT22;36334;51.366;0.020;2022-10-26T18:55:13;15.00;99.90
31759;DHT22;36334;51.366;0.020;2022-10-26T18:58:02;15.00;99.90
31759;DHT22;36334;51.366;0.020;2022-10-26T19:00:48;15.00;99.90
31759;DHT22;36334;51.366;0.020;2022-10-26T19:03:34;14.90;99.90
31759;DHT22;36334;51.366;0.020;2022-10-26T19:06:23;14.90;99.90
31759;DHT22;36334;51.366;0.020;2022-10-26T19:09:09;14.90;99.90
31759;DHT22;36334;51.366;0.020;2022-10-26T19:11:55;14.80;99.90
31759;DHT22;36334;51.366;0.020;2022-10-26T19:14:50;14.80;99.90
31759;DHT22;36334;51.366;0.020;2022-10-26T19:17:36;14.80;99.90
31759;DHT22;36334;51.366;0.020;2022-10-26T19:20:22;14.80;99.90
31759;DHT22;36334;51.366;0.020;2022-10-26T19:23:11;14.80;99.90
31759;DHT22;36334;51.366;0.020;2022-10-26T19:25:58;14.80;99.90
31759;DHT22;36334;51.366;0.020;2022-10-26T19:28:44;14.80;99.90
31759;DHT22;36334;51.366;0.020;2022-10-26T19:31:32;14.80;99.90
31759;DHT22;36334;51.366;0.020;2022-10-26T19:34:19;14.80;99.90
31759;DHT22;36334;51.366;0.020;2022-10-26T19:37:05;14.70;99.90
31759;DHT22;36334;51.366;0.020;2022-10-26T19:39:51;14.80;99.90
31759;DHT22;36334;51.366;0.020;2022-10-26T19:42:39;14.70;99.90
31759;DHT22;36334;51.366;0.020;2022-10-26T19:45:25;14.70;99.90
31759;DHT22;36334;51.366;0.020;2022-10-26T19:48:15;14.70;99.90
31759;DHT22;36334;51.366;0.020;2022-10-26T19:51:02;14.70;99.90